createdAt,value
2018-06-09T00:01:35.445Z,23.50
2018-06-09T00:04:03.539Z,23.40
2018-06-09T00:06:31.625Z,23.40
2018-06-09T00:08:59.879Z,23.40
2018-06-09T00:11:27.977Z,23.40
2018-06-09T00:13:56.058Z,23.30
2018-06-09T00:16:24.144Z,23.40
2018-06-09T00:21:20.098Z,23.30
2018-06-09T00:23:48.173Z,23.30
2018-06-09T00:26:16.261Z,23.30
2018-06-09T00:28:44.342Z,23.20
2018-06-09T00:31:12.430Z,23.20
2018-06-09T00:33:40.518Z,23.20
2018-06-09T00:36:08.610Z,23.20
2018-06-09T00:38:36.841Z,23.20
2018-06-09T00:41:04.941Z,23.10
2018-06-09T00:43:33.022Z,23.10
2018-06-09T00:46:01.108Z,23.00
2018-06-09T00:48:29.193Z,23.00
2018-06-09T00:50:57.277Z,22.90
2018-06-09T00:53:25.356Z,22.80
2018-06-09T00:57:01.057Z,22.80
2018-06-09T00:59:29.141Z,22.70
2018-06-09T01:01:57.245Z,22.70
2018-06-09T01:04:25.329Z,22.70
2018-06-09T01:06:53.421Z,22.70
2018-06-09T01:09:21.493Z,22.70
2018-06-09T01:11:49.576Z,22.60
2018-06-09T01:14:17.664Z,22.70
2018-06-09T01:16:45.744Z,22.80
2018-06-09T01:19:14.053Z,22.70
2018-06-09T01:21:42.129Z,22.60
2018-06-09T01:24:10.214Z,22.60
2018-06-09T01:26:38.293Z,22.60
2018-06-09T01:29:06.381Z,22.50
2018-06-09T01:31:34.474Z,22.60
2018-06-09T01:34:02.578Z,22.50
2018-06-09T01:36:30.658Z,22.50
2018-06-09T01:38:58.740Z,22.40
2018-06-09T01:41:26.838Z,22.50
2018-06-09T01:43:54.922Z,22.50
2018-06-09T01:46:23.007Z,22.50
2018-06-09T01:48:51.090Z,22.40
2018-06-09T01:51:19.214Z,22.40
2018-06-09T01:53:47.301Z,22.30
2018-06-09T01:56:15.385Z,22.30
2018-06-09T01:58:43.483Z,22.20
2018-06-09T02:01:11.553Z,22.20
2018-06-09T02:03:39.636Z,22.10
2018-06-09T02:06:07.713Z,22.10
2018-06-09T02:08:35.802Z,22.10
2018-06-09T02:11:03.872Z,22.20
2018-06-09T02:13:31.954Z,22.20
2018-06-09T02:16:00.042Z,22.20
2018-06-09T02:20:55.981Z,22.10
2018-06-09T02:23:24.056Z,22.00
2018-06-09T02:25:52.141Z,22.00
2018-06-09T02:28:20.223Z,22.00
2018-06-09T02:30:48.313Z,22.10
2018-06-09T02:33:16.418Z,22.10
2018-06-09T02:35:44.519Z,22.00
2018-06-09T02:38:12.607Z,21.90
2018-06-09T02:40:40.685Z,21.90
2018-06-09T02:43:08.765Z,22.00
2018-06-09T02:45:36.854Z,22.00
2018-06-09T02:48:04.940Z,22.00
2018-06-09T02:50:33.017Z,21.90
2018-06-09T02:53:01.135Z,21.90
2018-06-09T02:55:29.229Z,21.90
2018-06-09T02:57:57.313Z,21.90
2018-06-09T03:00:25.393Z,21.90
2018-06-09T03:02:53.484Z,21.90
2018-06-09T03:05:21.585Z,21.90
2018-06-09T03:07:49.661Z,21.90
2018-06-09T03:10:17.759Z,21.90
2018-06-09T03:12:45.833Z,21.90
2018-06-09T03:15:13.907Z,22.00
2018-06-09T03:17:41.994Z,22.00
2018-06-09T03:20:10.073Z,22.00
2018-06-09T03:22:38.170Z,21.90
2018-06-09T03:25:06.270Z,21.80
2018-06-09T03:27:34.353Z,21.70
2018-06-09T03:30:02.428Z,21.80
2018-06-09T03:32:30.527Z,21.70
2018-06-09T03:34:58.606Z,21.70
2018-06-09T03:37:26.793Z,21.70
2018-06-09T03:39:54.874Z,21.70
2018-06-09T03:42:22.954Z,21.70
2018-06-09T03:44:51.046Z,21.60
2018-06-09T03:47:19.116Z,21.60
2018-06-09T03:49:47.202Z,21.70
2018-06-09T03:52:15.290Z,21.70
2018-06-09T03:54:43.670Z,21.70
2018-06-09T03:57:12.043Z,21.70
2018-06-09T03:59:40.472Z,21.60
2018-06-09T04:02:08.941Z,21.60
2018-06-09T04:04:37.728Z,21.60
2018-06-09T04:07:06.114Z,21.60
2018-06-09T04:09:34.465Z,21.60
2018-06-09T04:12:02.791Z,21.70
2018-06-09T04:14:31.224Z,21.70
2018-06-09T04:17:00.243Z,21.70
2018-06-09T04:19:28.638Z,21.70
2018-06-09T04:21:56.952Z,21.70
2018-06-09T04:24:25.354Z,21.70
2018-06-09T04:26:59.547Z,21.60
2018-06-09T04:29:27.868Z,21.60
2018-06-09T04:31:56.250Z,21.50
2018-06-09T04:34:24.611Z,21.50
2018-06-09T04:36:52.940Z,21.50
2018-06-09T04:39:21.311Z,21.50
2018-06-09T04:41:49.400Z,21.50
2018-06-09T04:44:17.537Z,21.60
2018-06-09T04:46:45.649Z,21.80
2018-06-09T04:49:13.750Z,21.80
2018-06-09T04:51:41.854Z,21.90
2018-06-09T04:54:09.949Z,21.90
2018-06-09T04:56:38.045Z,21.90
2018-06-09T04:59:06.145Z,21.90
2018-06-09T05:01:34.252Z,21.80
2018-06-09T05:04:02.346Z,21.80
2018-06-09T05:06:30.481Z,21.80
2018-06-09T05:08:58.574Z,21.80
2018-06-09T05:11:26.669Z,21.80
2018-06-09T05:13:54.748Z,21.80
2018-06-09T05:16:22.865Z,21.80
2018-06-09T05:18:50.958Z,21.80
2018-06-09T05:21:19.049Z,21.80
2018-06-09T05:23:47.140Z,21.80
2018-06-09T05:26:15.252Z,21.90
2018-06-09T05:28:43.341Z,21.90
2018-06-09T05:31:11.990Z,21.90
2018-06-09T05:33:40.090Z,21.80
2018-06-09T05:36:08.186Z,21.80
2018-06-09T05:38:36.281Z,21.90
2018-06-09T05:41:04.370Z,22.00
2018-06-09T05:43:32.466Z,22.10
2018-06-09T05:46:00.549Z,22.10
2018-06-09T05:48:28.821Z,22.20
2018-06-09T05:50:56.917Z,22.30
2018-06-09T05:53:25.034Z,22.40
2018-06-09T05:55:53.125Z,22.40
2018-06-09T05:58:21.217Z,22.40
2018-06-09T06:00:49.486Z,22.50
2018-06-09T06:03:17.704Z,22.40
2018-06-09T06:05:45.777Z,22.40
2018-06-09T06:08:13.880Z,22.50
2018-06-09T06:10:41.969Z,22.50
2018-06-09T06:13:10.146Z,22.60
2018-06-09T06:15:38.245Z,22.70
2018-06-09T06:18:06.353Z,22.80
2018-06-09T06:20:34.683Z,22.70
2018-06-09T06:23:02.763Z,22.70
2018-06-09T06:25:30.870Z,22.80
2018-06-09T06:27:58.982Z,22.90
2018-06-09T06:30:27.081Z,22.90
2018-06-09T06:32:55.325Z,23.10
2018-06-09T06:35:23.453Z,23.10
2018-06-09T06:37:51.558Z,23.10
2018-06-09T06:40:19.649Z,23.00
2018-06-09T06:42:47.746Z,23.00
2018-06-09T06:45:15.917Z,23.10
2018-06-09T06:47:44.026Z,23.10
2018-06-09T06:50:12.153Z,23.30
2018-06-09T06:52:40.237Z,23.30
2018-06-09T06:55:08.333Z,23.30
2018-06-09T06:57:36.423Z,23.30
2018-06-09T07:00:04.509Z,23.30
2018-06-09T07:02:32.588Z,23.30
2018-06-09T07:05:00.678Z,23.30
2018-06-09T07:07:28.769Z,23.30
2018-06-09T07:09:56.846Z,23.30
2018-06-09T07:12:25.069Z,23.30
2018-06-09T07:14:53.146Z,23.50
2018-06-09T07:17:21.261Z,23.50
2018-06-09T07:19:49.353Z,23.60
2018-06-09T07:22:17.450Z,23.60
2018-06-09T07:24:45.545Z,23.60
2018-06-09T07:27:13.637Z,23.70
2018-06-09T07:29:41.718Z,23.70
2018-06-09T07:32:09.813Z,23.80
2018-06-09T07:34:37.901Z,23.80
2018-06-09T07:37:05.985Z,23.90
2018-06-09T07:39:34.078Z,24.00
2018-06-09T07:42:02.183Z,24.00
2018-06-09T07:44:30.253Z,23.90
2018-06-09T07:46:58.370Z,23.90
2018-06-09T07:49:26.449Z,24.00
2018-06-09T07:51:54.541Z,24.00
2018-06-09T07:54:22.621Z,24.00
2018-06-09T07:59:18.637Z,24.10
2018-06-09T08:01:46.714Z,24.20
2018-06-09T08:04:14.833Z,24.20
2018-06-09T08:06:42.913Z,24.30
2018-06-09T08:09:12.022Z,24.30
2018-06-09T08:11:40.098Z,24.40
2018-06-09T08:14:08.181Z,24.40
2018-06-09T08:16:36.253Z,24.40
2018-06-09T08:19:04.341Z,24.50
2018-06-09T08:21:32.418Z,24.60
2018-06-09T08:24:00.501Z,24.60
2018-06-09T08:26:28.576Z,24.60
2018-06-09T08:28:56.660Z,24.70
2018-06-09T08:31:24.747Z,24.80
2018-06-09T08:33:52.848Z,24.90
2018-06-09T08:36:21.021Z,24.90
2018-06-09T08:38:49.028Z,25.00
2018-06-09T08:41:17.126Z,25.00
2018-06-09T08:43:45.225Z,25.00
2018-06-09T08:46:13.301Z,25.10
2018-06-09T08:48:41.401Z,25.10
2018-06-09T08:51:09.483Z,25.30
2018-06-09T08:53:37.566Z,25.30
2018-06-09T08:56:05.674Z,25.40
2018-06-09T08:58:33.751Z,25.40
2018-06-09T09:01:01.834Z,25.40
2018-06-09T09:03:29.919Z,25.50
2018-06-09T09:05:58.009Z,25.70
2018-06-09T09:08:26.089Z,25.70
2018-06-09T09:10:54.194Z,25.80
2018-06-09T09:13:22.269Z,25.90
2018-06-09T09:15:50.357Z,25.90
2018-06-09T09:18:18.440Z,25.80
2018-06-09T09:20:46.525Z,26.00
2018-06-09T09:23:14.609Z,26.00
2018-06-09T09:25:42.762Z,26.00
2018-06-09T09:28:10.837Z,26.10
2018-06-09T09:33:06.793Z,26.30
2018-06-09T09:35:34.897Z,26.30
2018-06-09T09:38:03.041Z,26.50
2018-06-09T09:40:31.133Z,26.50
2018-06-09T09:42:59.209Z,26.60
2018-06-09T09:45:27.354Z,26.80
2018-06-09T09:47:55.393Z,26.90
2018-06-09T09:50:23.470Z,26.90
2018-06-09T09:52:51.557Z,26.90
2018-06-09T09:55:19.633Z,26.90
2018-06-09T09:57:54.784Z,26.90
2018-06-09T10:00:22.870Z,27.00
2018-06-09T10:02:51.276Z,27.00
2018-06-09T10:05:19.354Z,27.00
2018-06-09T10:07:47.433Z,27.10
2018-06-09T10:10:15.513Z,27.30
2018-06-09T10:12:43.605Z,27.30
2018-06-09T10:15:11.672Z,27.40
2018-06-09T10:17:39.758Z,27.30
2018-06-09T10:20:07.842Z,27.20
2018-06-09T10:22:35.930Z,27.50
2018-06-09T10:25:04.005Z,27.50
2018-06-09T10:27:32.093Z,27.70
2018-06-09T10:30:00.183Z,27.90
2018-06-09T10:32:28.275Z,28.10
2018-06-09T10:34:56.359Z,28.30
2018-06-09T10:37:24.458Z,28.40
2018-06-09T10:39:52.526Z,28.50
2018-06-09T10:42:20.620Z,28.60
2018-06-09T10:44:48.697Z,28.70
2018-06-09T10:47:16.789Z,28.70
2018-06-09T10:49:44.868Z,29.00
2018-06-09T10:52:12.958Z,29.20
2018-06-09T10:54:41.037Z,29.20
2018-06-09T10:57:09.132Z,29.30
2018-06-09T10:59:37.205Z,29.40
2018-06-09T11:02:05.313Z,29.50
2018-06-09T11:04:33.389Z,29.60
2018-06-09T11:07:01.473Z,29.80
2018-06-09T11:09:29.565Z,30.00
2018-06-09T11:11:57.643Z,30.00
2018-06-09T11:14:25.733Z,30.10
2018-06-09T11:16:53.891Z,30.30
2018-06-09T11:19:21.981Z,30.30
2018-06-09T11:21:50.057Z,30.40
2018-06-09T11:24:18.149Z,30.50
2018-06-09T11:26:46.234Z,30.60
2018-06-09T11:29:14.385Z,30.70
2018-06-09T11:31:42.526Z,30.70
2018-06-09T11:34:10.618Z,30.70
2018-06-09T11:36:38.710Z,30.60
2018-06-09T11:39:08.137Z,30.70
2018-06-09T11:41:36.809Z,30.70
2018-06-09T11:44:05.644Z,30.80
2018-06-09T11:46:33.725Z,31.00
2018-06-09T11:49:01.814Z,31.10
2018-06-09T11:51:29.897Z,31.20
2018-06-09T11:53:57.994Z,31.20
2018-06-09T11:56:26.070Z,31.40
2018-06-09T11:58:54.154Z,31.50
2018-06-09T12:01:22.241Z,31.70
2018-06-09T12:03:50.316Z,31.80
2018-06-09T12:06:18.405Z,31.90
2018-06-09T12:08:46.476Z,31.90
2018-06-09T12:11:14.565Z,32.10
2018-06-09T12:13:42.694Z,32.10
2018-06-09T12:16:10.787Z,32.10
2018-06-09T12:18:38.858Z,32.20
2018-06-09T12:21:06.937Z,32.30
2018-06-09T12:23:35.017Z,32.40
2018-06-09T12:26:03.117Z,32.50
2018-06-09T12:28:32.069Z,32.60
2018-06-09T12:31:00.157Z,32.70
2018-06-09T12:33:28.241Z,32.70
2018-06-09T12:35:56.331Z,32.90
2018-06-09T12:38:24.402Z,33.10
2018-06-09T12:40:52.489Z,33.30
2018-06-09T12:43:20.570Z,33.40
2018-06-09T12:45:48.649Z,33.80
2018-06-09T12:48:16.737Z,34.20
2018-06-09T12:50:44.817Z,34.50
2018-06-09T12:53:12.955Z,35.00
2018-06-09T12:55:41.050Z,35.70
2018-06-09T12:58:09.129Z,36.60
2018-06-09T13:00:37.218Z,37.40
2018-06-09T13:03:05.307Z,37.60
2018-06-09T13:05:33.378Z,37.70
2018-06-09T13:08:01.458Z,37.90
2018-06-09T13:10:29.722Z,37.80
2018-06-09T13:12:57.808Z,38.20
2018-06-09T13:15:25.889Z,37.50
2018-06-09T13:17:53.973Z,37.70
2018-06-09T13:20:22.053Z,37.50
2018-06-09T13:22:50.174Z,37.40
2018-06-09T13:25:18.250Z,37.10
2018-06-09T13:27:46.337Z,36.80
2018-06-09T13:30:14.438Z,36.40
2018-06-09T13:32:42.490Z,36.20
2018-06-09T13:35:10.746Z,35.80
2018-06-09T13:37:38.825Z,35.30
2018-06-09T13:40:06.918Z,35.00
2018-06-09T13:42:35.004Z,34.90
2018-06-09T13:45:03.090Z,34.80
2018-06-09T13:49:59.606Z,34.40
2018-06-09T13:52:27.693Z,34.10
2018-06-09T13:54:55.802Z,33.70
2018-06-09T13:57:23.878Z,33.60
2018-06-09T13:59:51.961Z,33.40
2018-06-09T14:02:20.065Z,33.20
2018-06-09T14:04:48.153Z,33.10
2018-06-09T14:07:16.225Z,32.90
2018-06-09T14:09:44.376Z,32.90
2018-06-09T14:12:12.465Z,32.90
2018-06-09T14:14:40.565Z,32.70
2018-06-09T14:17:08.646Z,32.50
2018-06-09T14:19:36.733Z,32.40
2018-06-09T14:22:04.825Z,32.40
2018-06-09T14:24:32.908Z,32.30
2018-06-09T14:27:01.486Z,32.20
2018-06-09T14:29:29.561Z,32.00
2018-06-09T14:31:57.650Z,32.00
2018-06-09T14:36:53.678Z,32.00
2018-06-09T14:39:21.772Z,32.10
2018-06-09T14:41:49.849Z,32.20
2018-06-09T14:44:17.945Z,32.20
2018-06-09T14:46:46.108Z,32.30
2018-06-09T14:49:14.213Z,32.40
2018-06-09T14:51:42.327Z,32.40
2018-06-09T14:54:10.389Z,32.40
2018-06-09T14:56:38.457Z,32.30
2018-06-09T14:59:06.549Z,32.20
2018-06-09T15:01:34.621Z,32.30
2018-06-09T15:04:02.707Z,32.50
2018-06-09T15:06:30.986Z,32.70
2018-06-09T15:08:59.049Z,33.00
2018-06-09T15:11:27.352Z,33.30
2018-06-09T15:13:55.412Z,33.70
2018-06-09T15:16:23.497Z,34.00
2018-06-09T15:18:51.577Z,34.30
2018-06-09T15:21:19.665Z,34.30
2018-06-09T15:23:47.754Z,34.10
2018-06-09T15:28:43.717Z,34.10
2018-06-09T15:31:11.797Z,34.30
2018-06-09T15:33:39.947Z,34.70
2018-06-09T15:36:07.998Z,34.90
2018-06-09T15:38:36.086Z,35.10
2018-06-09T15:41:04.205Z,35.30
2018-06-09T15:43:32.285Z,35.00
2018-06-09T15:46:00.385Z,35.00
2018-06-09T15:50:56.400Z,34.70
2018-06-09T15:53:24.485Z,34.30
2018-06-09T15:55:52.578Z,34.00
2018-06-09T15:58:20.735Z,33.70
2018-06-09T16:00:48.818Z,33.40
2018-06-09T16:03:16.912Z,33.00
2018-06-09T16:05:45.002Z,32.70
2018-06-09T16:08:13.141Z,32.40
2018-06-09T16:10:41.193Z,32.20
2018-06-09T16:13:09.289Z,32.10
2018-06-09T16:15:37.375Z,31.80
2018-06-09T16:18:05.452Z,31.70
2018-06-09T16:20:33.541Z,31.50
2018-06-09T16:23:01.634Z,31.30
2018-06-09T16:25:29.742Z,31.10
2018-06-09T16:27:57.825Z,30.90
2018-06-09T16:30:25.906Z,30.70
2018-06-09T16:32:53.994Z,30.60
2018-06-09T16:35:22.100Z,30.60
2018-06-09T16:37:50.191Z,30.40
2018-06-09T16:40:18.269Z,30.40
2018-06-09T16:42:46.361Z,30.20
2018-06-09T16:45:14.454Z,30.20
2018-06-09T16:47:42.640Z,30.20
2018-06-09T16:50:10.690Z,30.20
2018-06-09T16:52:38.772Z,30.10
2018-06-09T16:55:06.854Z,30.00
2018-06-09T16:57:34.937Z,29.80
2018-06-09T17:00:03.033Z,29.70
2018-06-09T17:02:31.110Z,29.50
2018-06-09T17:04:59.213Z,29.40
2018-06-09T17:07:27.397Z,29.30
2018-06-09T17:09:55.477Z,29.20
2018-06-09T17:12:23.581Z,28.90
2018-06-09T17:14:51.671Z,28.70
2018-06-09T17:17:19.773Z,28.70
2018-06-09T17:19:47.861Z,28.70
2018-06-09T17:22:15.937Z,28.60
2018-06-09T17:24:44.024Z,28.30
2018-06-09T17:27:12.097Z,28.00
2018-06-09T17:29:40.177Z,27.80
2018-06-09T17:32:08.252Z,27.60
2018-06-09T17:34:36.344Z,27.40
2018-06-09T17:37:04.445Z,27.10
2018-06-09T17:39:32.517Z,27.10
2018-06-09T17:42:00.607Z,27.10
2018-06-09T17:44:28.692Z,26.90
2018-06-09T17:49:24.710Z,27.00
2018-06-09T17:51:52.802Z,27.00
2018-06-09T17:54:20.877Z,26.90
2018-06-09T17:56:48.974Z,26.60
2018-06-09T17:59:17.055Z,26.30
2018-06-09T18:01:45.149Z,26.00
2018-06-09T18:04:13.225Z,25.70
2018-06-09T18:06:41.322Z,25.60
2018-06-09T18:09:09.398Z,25.40
2018-06-09T18:14:05.409Z,25.30
2018-06-09T18:16:33.497Z,25.30
2018-06-09T18:19:01.574Z,25.40
2018-06-09T18:21:29.665Z,25.30
2018-06-09T18:23:57.753Z,25.30
2018-06-09T18:26:25.847Z,25.20
2018-06-09T18:28:53.920Z,25.10
2018-06-09T18:31:22.017Z,25.10
2018-06-09T18:33:50.142Z,25.00
2018-06-09T18:38:46.049Z,25.00
2018-06-09T18:41:14.154Z,24.90
2018-06-09T18:43:42.308Z,24.90
2018-06-09T18:46:10.365Z,24.80
2018-06-09T18:48:38.452Z,24.80
2018-06-09T18:51:06.534Z,24.80
2018-06-09T18:53:34.633Z,24.70
2018-06-09T18:56:02.719Z,24.70
2018-06-09T18:58:30.844Z,24.70
2018-06-09T19:00:58.881Z,24.60
2018-06-09T19:05:54.812Z,24.70
2018-06-09T19:08:22.896Z,24.60
2018-06-09T19:10:50.985Z,24.70
2018-06-09T19:13:19.064Z,24.80
2018-06-09T19:15:47.145Z,24.80
2018-06-09T19:18:15.241Z,24.90
2018-06-09T19:20:43.329Z,25.00
2018-06-09T19:23:11.426Z,25.00
2018-06-09T19:25:39.511Z,25.00
2018-06-09T19:28:07.586Z,25.00
2018-06-09T19:30:35.677Z,24.90
2018-06-09T19:33:03.761Z,24.90
2018-06-09T19:35:31.877Z,24.80
2018-06-09T19:40:27.894Z,24.60
2018-06-09T19:42:55.969Z,24.60
2018-06-09T19:45:24.057Z,24.60
2018-06-09T19:47:52.265Z,24.50
2018-06-09T19:50:20.341Z,24.40
2018-06-09T19:52:48.435Z,24.40
2018-06-09T19:55:16.516Z,24.30
2018-06-09T19:57:44.602Z,24.40
2018-06-09T20:00:12.688Z,24.40
2018-06-09T20:02:40.780Z,24.30
2018-06-09T20:05:08.971Z,24.20
2018-06-09T20:07:37.049Z,24.20
2018-06-09T20:10:05.145Z,24.10
2018-06-09T20:12:33.229Z,24.00
2018-06-09T20:15:01.314Z,24.00
2018-06-09T20:17:29.523Z,24.00
2018-06-09T20:19:57.650Z,24.00
2018-06-09T20:22:25.749Z,23.90
2018-06-09T20:24:53.837Z,23.90
2018-06-09T20:27:21.953Z,23.90
2018-06-09T20:29:50.022Z,23.90
2018-06-09T20:32:18.114Z,23.90
2018-06-09T20:34:46.196Z,23.90
2018-06-09T20:37:14.276Z,23.80
2018-06-09T20:39:42.365Z,23.70
2018-06-09T20:42:10.454Z,23.70
2018-06-09T20:44:38.534Z,23.70
2018-06-09T20:47:06.629Z,23.70
2018-06-09T20:49:34.845Z,23.70
2018-06-09T20:52:02.929Z,23.70
2018-06-09T20:54:31.009Z,23.70
2018-06-09T20:56:59.101Z,23.70
2018-06-09T20:59:27.185Z,23.70
2018-06-09T21:01:55.285Z,23.70
2018-06-09T21:04:23.373Z,23.80
2018-06-09T21:06:51.458Z,23.80
2018-06-09T21:09:19.538Z,23.80
2018-06-09T21:11:47.626Z,23.80
2018-06-09T21:14:15.710Z,23.80
2018-06-09T21:16:43.794Z,23.90
2018-06-09T21:19:11.876Z,23.90
2018-06-09T21:21:39.974Z,23.90
2018-06-09T21:24:08.053Z,23.90
2018-06-09T21:26:41.487Z,23.90
2018-06-09T21:29:12.593Z,23.70
2018-06-09T21:31:43.809Z,23.50
2018-06-09T21:34:28.714Z,23.30
2018-06-09T21:36:57.303Z,23.00
2018-06-09T21:39:33.054Z,22.80
2018-06-09T21:42:07.369Z,22.60
2018-06-09T21:44:41.710Z,22.40
2018-06-09T21:47:10.060Z,22.30
2018-06-09T21:49:38.140Z,22.20
2018-06-09T21:52:06.501Z,22.10
2018-06-09T21:54:34.577Z,22.00
2018-06-09T21:57:02.673Z,22.00
2018-06-09T21:59:30.745Z,22.00
2018-06-09T22:02:01.134Z,22.00
2018-06-09T22:04:29.982Z,22.00
2018-06-09T22:06:58.102Z,21.90
2018-06-09T22:09:26.190Z,22.00
2018-06-09T22:11:54.273Z,22.10
2018-06-09T22:14:22.365Z,22.20
2018-06-09T22:16:51.342Z,22.30
2018-06-09T22:19:19.428Z,22.40
2018-06-09T22:21:47.497Z,22.40
2018-06-09T22:24:15.600Z,22.50
2018-06-09T22:26:43.678Z,22.50
2018-06-09T22:29:11.761Z,22.50
2018-06-09T22:31:39.838Z,22.60
2018-06-09T22:34:07.949Z,22.60
2018-06-09T22:39:06.390Z,22.60
2018-06-09T22:41:34.472Z,22.60
2018-06-09T22:44:02.565Z,22.60
2018-06-09T22:46:30.683Z,22.60
2018-06-09T22:48:58.785Z,22.60
2018-06-09T22:51:26.875Z,22.70
2018-06-09T22:53:54.944Z,22.60
2018-06-09T22:56:23.017Z,22.60
2018-06-09T22:58:51.220Z,22.60
2018-06-09T23:01:19.293Z,22.60
2018-06-09T23:03:47.382Z,22.60
2018-06-09T23:06:15.462Z,22.60
2018-06-09T23:08:43.577Z,22.60
2018-06-09T23:11:11.658Z,22.40
2018-06-09T23:13:39.749Z,22.40
2018-06-09T23:16:07.817Z,22.40
2018-06-09T23:18:35.898Z,22.30
2018-06-09T23:21:03.983Z,22.30
2018-06-09T23:23:32.069Z,22.20
2018-06-09T23:26:00.145Z,22.10
2018-06-09T23:28:28.237Z,22.10
2018-06-09T23:30:56.326Z,22.10
2018-06-09T23:33:24.405Z,22.20
2018-06-09T23:38:20.381Z,22.10
2018-06-09T23:40:48.474Z,22.00
2018-06-09T23:43:16.544Z,22.00
2018-06-09T23:45:44.631Z,22.10
2018-06-09T23:48:12.709Z,22.20
2018-06-09T23:50:40.802Z,22.20
2018-06-09T23:53:08.881Z,22.30
2018-06-09T23:55:36.970Z,22.30
2018-06-09T23:58:05.059Z,22.30
